Time;durP1;ratioP1;P1;durP2;ratioP2;P2;SDS_P1;SDS_P2;PMS_P1;PMS_P2;Temp;Humidity;BMP_temperature;BMP_pressure;BME280_temperature;BME280_humidity;BME280_pressure;Samples;Min_cycle;Max_cycle;Signal;HPM_P1;HPM_P2
2022/02/24 00:00:52;;;;;;;26.55;18.35;;;;;;;3.84;82.14;100009.92;1533303;92;21574;-77
2022/02/24 00:03:20;;;;;;;23.38;17.02;;;;;;;3.86;82.24;100015.88;1554750;91;21140;-79
2022/02/24 00:05:48;;;;;;;35.20;19.25;;;;;;;3.88;82.38;100019.17;1577049;90;21736;-74
2022/02/24 00:08:18;;;;;;;28.57;17.52;;;;;;;3.89;82.40;100020.80;1559222;90;20982;-73
2022/02/24 00:10:46;;;;;;;24.02;17.82;;;;;;;3.90;82.52;100022.95;1559521;90;21133;-72
2022/02/24 00:13:13;;;;;;;24.35;16.60;;;;;;;3.91;82.64;100020.60;1554570;92;21066;-72
2022/02/24 00:15:40;;;;;;;29.30;18.60;;;;;;;3.91;82.75;100024.59;1568306;90;21150;-72
2022/02/24 00:18:07;;;;;;;23.32;17.45;;;;;;;3.91;82.92;100022.76;1578844;89;22097;-69
2022/02/24 00:20:33;;;;;;;25.65;19.35;;;;;;;3.92;83.04;100027.07;1591061;89;21015;-71
2022/02/24 00:22:59;;;;;;;24.35;15.75;;;;;;;3.94;83.19;100026.34;1563761;91;21156;-71
2022/02/24 00:25:25;;;;;;;22.52;16.10;;;;;;;3.98;83.24;100029.42;1564479;91;21161;-76
2022/02/24 00:27:52;;;;;;;19.60;15.00;;;;;;;4.02;83.34;100015.23;1543857;91;21062;-71
2022/02/24 00:30:18;;;;;;;26.65;14.60;;;;;;;4.02;83.29;100022.70;1544460;91;21102;-73
2022/02/24 00:32:44;;;;;;;26.27;15.98;;;;;;;4.00;83.34;100023.91;1564759;91;21059;-78
2022/02/24 00:35:12;;;;;;;21.42;14.63;;;;;;;3.95;83.44;100031.98;1578944;90;21115;-76
2022/02/24 00:37:39;;;;;;;27.93;17.42;;;;;;;3.91;83.66;100027.25;1554420;91;21118;-77
2022/02/24 00:40:06;;;;;;;30.30;17.27;;;;;;;3.86;83.87;100038.49;1554792;92;21184;-75
2022/02/24 00:42:36;;;;;;;27.32;16.55;;;;;;;3.85;84.13;100036.02;1534749;92;39287;-77
2022/02/24 00:45:03;;;;;;;21.17;16.35;;;;;;;3.85;84.46;100039.50;1578841;90;21074;-78
2022/02/24 00:47:30;;;;;;;25.20;16.32;;;;;;;3.85;84.63;100036.84;1553039;92;21098;-71
2022/02/24 00:49:56;;;;;;;18.35;12.93;;;;;;;3.87;84.80;100039.32;1578300;90;21079;-74
2022/02/24 00:52:22;;;;;;;27.27;18.12;;;;;;;3.88;84.85;100043.63;1577537;90;21123;-73
2022/02/24 00:54:49;;;;;;;23.92;17.15;;;;;;;3.81;85.00;100040.09;1577822;90;21166;-78
2022/02/24 00:57:15;;;;;;;22.37;15.03;;;;;;;3.80;85.25;100041.11;1578215;90;21006;-72
2022/02/24 00:59:42;;;;;;;30.40;17.00;;;;;;;3.79;85.42;100042.16;1559538;90;21066;-70
2022/02/24 01:02:09;;;;;;;23.30;14.90;;;;;;;3.76;85.52;100043.35;1578803;90;21086;-78
2022/02/24 01:04:35;;;;;;;21.40;14.03;;;;;;;3.75;85.72;100048.86;1578971;90;21123;-78
2022/02/24 01:07:03;;;;;;;19.05;14.20;;;;;;;3.73;85.95;100052.25;1559279;90;21135;-83
2022/02/24 01:09:29;;;;;;;26.93;16.05;;;;;;;3.72;86.18;100050.09;1528900;90;21036;-74
2022/02/24 01:11:56;;;;;;;22.50;15.23;;;;;;;3.73;86.48;100051.73;1578721;90;21064;-76
2022/02/24 01:14:22;;;;;;;22.65;13.80;;;;;;;3.78;86.55;100052.48;1578667;90;21058;-83
2022/02/24 01:16:50;;;;;;;21.35;14.23;;;;;;;3.81;86.60;100057.39;1562623;91;21046;-74
2022/02/24 01:19:17;;;;;;;27.40;17.27;;;;;;;3.83;86.60;100059.36;1559570;90;21281;-75
2022/02/24 01:21:43;;;;;;;26.35;16.20;;;;;;;3.80;86.65;100065.05;1554604;92;21370;-75
2022/02/24 01:24:09;;;;;;;27.93;15.18;;;;;;;3.81;86.69;100064.87;1577803;91;21029;-74
2022/02/24 01:26:36;;;;;;;32.70;22.22;;;;;;;3.82;86.68;100069.17;1538432;91;21123;-71
2022/02/24 01:29:03;;;;;;;26.68;16.15;;;;;;;3.84;86.83;100071.11;1579874;90;21060;-70
2022/02/24 01:31:29;;;;;;;19.35;14.95;;;;;;;3.86;86.91;100067.77;1578884;90;23211;-74
2022/02/24 01:33:56;;;;;;;23.95;16.97;;;;;;;3.89;86.91;100071.34;1578763;90;21153;-79
2022/02/24 01:36:22;;;;;;;26.95;18.57;;;;;;;3.88;87.00;100068.40;1579065;90;21101;-77
2022/02/24 01:38:49;;;;;;;18.30;13.75;;;;;;;3.86;87.05;100061.61;1554547;91;22404;-76
2022/02/24 01:41:15;;;;;;;21.75;14.70;;;;;;;3.91;87.15;100072.48;1578162;91;21101;-78
2022/02/24 01:43:46;;;;;;;20.08;14.90;;;;;;;3.90;87.06;100067.67;1559708;90;21229;-76
2022/02/24 01:46:14;;;;;;;19.52;13.65;;;;;;;3.87;87.04;100065.92;1554885;92;21012;-68
2022/02/24 01:48:40;;;;;;;21.35;16.45;;;;;;;3.86;87.26;100066.94;1578568;90;21113;-71
2022/02/24 01:51:09;;;;;;;20.70;12.53;;;;;;;3.84;87.36;100072.44;1554570;91;21181;-74
2022/02/24 01:53:35;;;;;;;23.45;14.90;;;;;;;3.83;87.40;100070.00;1554348;91;21102;-76
2022/02/24 01:56:06;;;;;;;23.50;14.90;;;;;;;3.79;87.53;100067.42;1554525;92;21184;-74
2022/02/24 01:58:32;;;;;;;23.30;16.07;;;;;;;3.76;87.70;100071.28;1538884;90;21368;-74
2022/02/24 02:01:01;;;;;;;25.30;16.93;;;;;;;3.74;87.88;100072.52;1579118;90;21077;-73
2022/02/24 02:03:31;;;;;;;20.57;15.00;;;;;;;3.68;88.31;100072.78;1554489;91;21627;-74
2022/02/24 02:05:57;;;;;;;22.42;14.93;;;;;;;3.64;88.47;100084.84;1574476;91;21173;-71
2022/02/24 02:08:23;;;;;;;25.45;13.98;;;;;;;3.61;88.65;100083.88;1578880;90;21766;-71
2022/02/24 02:10:50;;;;;;;27.02;16.45;;;;;;;3.61;88.89;100093.69;1579005;90;20999;-73
2022/02/24 02:13:16;;;;;;;18.25;13.20;;;;;;;3.61;89.19;100088.37;1578627;90;21053;-78
2022/02/24 02:15:44;;;;;;;22.42;14.18;;;;;;;3.62;89.42;100094.83;1553302;92;21103;-77
2022/02/24 02:18:10;;;;;;;24.92;14.95;;;;;;;3.63;89.56;100093.82;1577669;90;21606;-78
2022/02/24 02:20:39;;;;;;;20.95;14.28;;;;;;;3.66;89.68;100105.39;1578973;90;21254;-77
2022/02/24 02:23:05;;;;;;;23.62;14.33;;;;;;;3.66;89.73;100105.39;1554636;92;21022;-77
2022/02/24 02:25:32;;;;;;;18.70;13.10;;;;;;;3.68;89.82;100108.69;1559698;90;21367;-75
2022/02/24 02:28:00;;;;;;;22.73;14.03;;;;;;;3.67;89.85;100105.71;1554554;92;21082;-74
2022/02/24 02:30:26;;;;;;;21.33;16.05;;;;;;;3.67;89.95;100110.20;1552427;92;21150;-74
2022/02/24 02:32:52;;;;;;;15.55;12.88;;;;;;;3.67;90.02;100115.52;1554651;92;21611;-77
2022/02/24 02:35:18;;;;;;;27.60;17.48;;;;;;;3.68;90.10;100115.84;1575976;91;21021;-80
2022/02/24 02:37:45;;;;;;;32.80;19.07;;;;;;;3.69;90.16;100116.16;1560925;90;21596;-71
2022/02/24 02:40:12;;;;;;;28.87;17.07;;;;;;;3.69;90.10;100121.48;1553306;92;21231;-71
2022/02/24 02:42:39;;;;;;;28.27;18.73;;;;;;;3.68;90.11;100121.98;1559706;90;21064;-70
2022/02/24 02:45:08;;;;;;;33.98;19.82;;;;;;;3.72;90.19;100123.74;1559672;90;21136;-74
2022/02/24 02:47:35;;;;;;;29.95;20.40;;;;;;;3.74;90.23;100131.83;1558904;90;21054;-77
2022/02/24 02:50:03;;;;;;;40.88;24.07;;;;;;;3.77;90.18;100134.63;1578095;90;21637;-78
2022/02/24 02:52:30;;;;;;;35.88;22.32;;;;;;;3.76;90.05;100128.48;1577316;90;21811;-78
2022/02/24 02:55:01;;;;;;;37.33;23.00;;;;;;;3.76;89.85;100131.14;1575288;90;21152;-78
2022/02/24 02:57:28;;;;;;;36.60;24.00;;;;;;;3.73;89.71;100139.52;1535153;92;21127;-78
2022/02/24 02:59:54;;;;;;;48.75;28.75;;;;;;;3.71;89.63;100142.05;1585066;90;21588;-77
2022/02/24 03:02:20;;;;;;;60.15;29.32;;;;;;;3.67;89.56;100144.28;1568716;90;21108;-77
2022/02/24 03:04:50;;;;;;;47.05;27.45;;;;;;;3.67;89.62;100147.44;1558022;91;21109;-78
2022/02/24 03:07:15;;;;;;;46.77;28.30;;;;;;;3.66;89.64;100149.28;1563202;90;21570;-75
2022/02/24 03:09:42;;;;;;;42.45;27.60;;;;;;;3.63;89.60;100149.67;1568332;90;21126;-72
2022/02/24 03:12:09;;;;;;;42.23;26.07;;;;;;;3.59;89.61;100155.07;1590208;89;21080;-73
2022/02/24 03:14:38;;;;;;;35.85;24.18;;;;;;;3.58;89.74;100154.75;1569564;90;21077;-73
2022/02/24 03:17:07;;;;;;;37.73;21.55;;;;;;;3.59;89.86;100151.08;1592664;89;21100;-80
2022/02/24 03:19:36;;;;;;;37.10;22.27;;;;;;;3.60;89.94;100155.90;1584215;89;21043;-79
2022/02/24 03:22:02;;;;;;;33.35;20.77;;;;;;;3.61;90.01;100156.19;1566736;90;21006;-78
2022/02/24 03:24:28;;;;;;;29.87;20.82;;;;;;;3.62;90.01;100157.84;1592419;90;21051;-79
2022/02/24 03:26:55;;;;;;;25.52;19.60;;;;;;;3.63;90.01;100157.66;1563337;90;21122;-80
2022/02/24 03:29:21;;;;;;;29.75;18.95;;;;;;;3.64;89.99;100166.46;1592837;90;21097;-74
2022/02/24 03:31:47;;;;;;;31.33;20.55;;;;;;;3.62;89.86;100168.48;1592281;90;21561;-76
2022/02/24 03:34:14;;;;;;;24.05;18.00;;;;;;;3.59;89.80;100164.88;1592490;89;21056;-76
2022/02/24 03:36:40;;;;;;;32.80;20.45;;;;;;;3.59;89.84;100168.37;1592124;90;21643;-77
2022/02/24 03:39:07;;;;;;;34.80;20.75;;;;;;;3.59;89.75;100174.19;1586906;89;21065;-75
2022/02/24 03:41:33;;;;;;;29.00;18.98;;;;;;;3.64;89.98;100163.30;1589382;90;21106;-79
2022/02/24 03:44:00;;;;;;;34.70;21.60;;;;;;;3.73;89.97;100173.27;1565688;90;21068;-74
2022/02/24 03:46:27;;;;;;;33.23;21.37;;;;;;;3.76;89.76;100174.20;1569629;90;21137;-74
2022/02/24 03:48:53;;;;;;;37.58;28.73;;;;;;;3.76;89.69;100175.53;1592914;90;21071;-75
2022/02/24 03:51:20;;;;;;;41.30;25.65;;;;;;;3.76;89.68;100175.03;1592135;90;20981;-78
2022/02/24 03:53:46;;;;;;;41.48;26.73;;;;;;;3.75;89.71;100176.55;1590022;90;21337;-79
2022/02/24 03:56:13;;;;;;;41.37;25.40;;;;;;;3.73;89.73;100174.60;1591426;90;21010;-80
2022/02/24 03:58:40;;;;;;;32.83;21.17;;;;;;;3.71;89.74;100177.95;1592361;89;21978;-80
2022/02/24 04:01:07;;;;;;;40.60;25.30;;;;;;;3.73;89.93;100174.60;1586791;90;20989;-78
2022/02/24 04:03:33;;;;;;;32.30;22.73;;;;;;;3.73;90.01;100166.63;1590197;90;20986;-77
2022/02/24 04:05:59;;;;;;;38.85;23.00;;;;;;;3.72;90.02;100171.12;1592027;90;21133;-79
2022/02/24 04:08:27;;;;;;;32.25;21.85;;;;;;;3.70;90.13;100173.64;1561084;91;21097;-79
2022/02/24 04:10:55;;;;;;;32.15;21.60;;;;;;;3.72;90.34;100178.27;1552717;92;21085;-79
2022/02/24 04:13:23;;;;;;;28.73;19.73;;;;;;;3.74;90.49;100174.39;1549547;90;21059;-79
2022/02/24 04:15:50;;;;;;;30.68;22.32;;;;;;;3.77;90.69;100172.69;1590958;90;21517;-79
2022/02/24 04:18:16;;;;;;;30.43;20.50;;;;;;;3.80;90.90;100176.79;1592383;88;21067;-82
2022/02/24 04:20:43;;;;;;;36.73;25.08;;;;;;;3.81;91.07;100181.09;1592289;89;21042;-80
2022/02/24 04:23:10;;;;;;;38.85;24.23;;;;;;;3.80;91.08;100177.61;1592131;89;21771;-77
2022/02/24 04:25:36;;;;;;;34.20;21.75;;;;;;;3.81;91.13;100188.58;1592164;90;21626;-78
2022/02/24 04:28:03;;;;;;;33.50;21.25;;;;;;;3.84;91.18;100187.35;1592114;89;21142;-75
2022/02/24 04:30:33;;;;;;;28.10;19.67;;;;;;;3.84;91.17;100196.66;1591983;90;21012;-78
2022/02/24 04:33:01;;;;;;;37.53;25.25;;;;;;;3.84;91.11;100204.14;1589974;90;21650;-76
2022/02/24 04:35:28;;;;;;;29.42;23.30;;;;;;;3.84;91.16;100209.97;1592414;90;21159;-79
2022/02/24 04:37:54;;;;;;;35.20;24.45;;;;;;;3.86;91.23;100215.42;1543090;90;22415;-75
2022/02/24 04:40:21;;;;;;;31.52;22.95;;;;;;;3.88;91.29;100217.40;1567959;90;21129;-71
2022/02/24 04:42:47;;;;;;;36.70;24.25;;;;;;;3.92;91.39;100227.14;1592206;89;20998;-77
